Date,TemperatureHighF,TemperatureAvgF,TemperatureLowF,DewpointHighF,DewpointAvgF,DewpointLowF,HumidityHigh,HumidityAvg,HumidityLow,PressureMaxIn,PressureMinIn,WindSpeedMaxMPH,WindSpeedAvgMPH,GustSpeedMaxMPH,PrecipitationSumIn
2013-7-1,85.3,74.1,69.5,72.4,66.5,56.1,100,80,41,29.94,29.79,5,0,5,0.71
2013-7-2,83.7,75.8,70.7,76.0,66.6,57.1,100,76,43,30.06,29.94,8,1,8,0.35
2013-7-3,89.1,76.4,69.3,68.2,62.8,57.4,81,64,38,30.17,30.06,7,0,7,0.00
2013-7-4,89.6,77.3,69.3,70.6,63.8,55.5,93,66,33,30.20,30.09,6,1,6,0.00
2013-7-5,87.5,76.9,68.9,71.2,65.1,57.1,94,69,39,30.17,30.11,11,0,11,0.00
2013-7-6,92.0,79.5,69.7,73.0,66.1,59.4,98,67,37,30.17,30.03,8,0,8,0.00
2013-7-7,82.3,73.2,69.5,72.8,67.1,60.0,99,82,50,30.11,30.03,8,0,8,0.39
2013-7-8,84.6,73.4,65.7,70.6,65.6,59.3,99,79,46,30.14,30.06,8,1,8,0.00
2013-7-9,74.3,72.3,71.3,73.6,70.4,67.1,100,94,82,30.11,30.09,6,0,6,0.04
2013-7-12,77.2,68.4,62.3,68.8,62.6,54.8,100,84,48,30.09,29.97,15,2,15,0.55
2013-7-13,85.5,73.9,67.3,71.8,64.9,55.9,100,76,40,30.20,30.06,10,2,10,0.04
2013-7-14,91.4,79.8,70.2,69.0,61.8,53.9,86,57,30,30.26,30.20,8,0,8,0.04
2013-7-15,92.5,79.1,67.9,69.7,63.8,57.4,91,63,33,30.32,30.23,6,0,6,0.04
2013-7-16,91.4,78.2,69.3,72.7,68.7,61.6,97,76,40,30.32,30.23,8,0,8,0.04
2013-7-17,92.2,78.4,72.2,76.0,70.4,61.9,100,80,38,30.29,30.14,9,1,9,0.04
2013-7-18,93.8,80.8,70.7,75.9,69.6,60.0,98,73,33,30.17,30.03,6,0,6,0.04
2013-7-19,92.5,77.8,72.2,76.1,72.3,59.5,99,85,43,30.06,29.91,10,1,10,0.28
2013-7-20,86.8,74.4,70.9,73.1,70.6,60.8,100,89,51,29.97,29.85,15,1,15,0.55
2013-7-21,82.6,74.7,70.9,74.3,70.3,62.0,100,87,57,29.97,29.91,4,0,4,0.04
2013-7-22,86.2,77.0,71.8,74.0,70.2,63.8,100,81,50,29.94,29.79,7,0,7,0.24
2013-7-23,85.3,75.6,68.4,75.2,67.7,58.4,100,79,43,29.79,29.73,11,1,13,0.59
2013-7-24,73.6,67.6,59.6,70.9,57.8,46.9,100,73,45,29.97,29.76,16,2,16,0.00
2013-7-25,77.2,65.8,58.1,59.4,52.5,43.2,100,67,33,30.06,29.94,10,2,11,0.00
2013-7-26,82.8,68.2,55.6,57.5,52.1,45.0,97,62,29,30.09,30.00,6,0,6,0.00
2013-7-27,75.2,68.1,61.6,72.1,64.7,55.9,100,89,65,30.00,29.85,8,0,8,0.35
2013-7-28,79.4,69.4,59.4,69.1,57.8,47.0,100,70,36,30.03,29.85,12,1,12,0.47
2013-7-29,77.0,65.8,55.4,58.8,52.3,43.4,95,65,33,30.17,30.03,8,0,8,0.00
2013-7-30,81.7,69.8,60.5,64.8,56.2,48.1,97,65,34,30.20,30.11,6,0,8,0.00
2013-7-31,75.8,67.8,63.4,68.3,63.4,57.1,99,87,53,30.14,29.97,6,0,6,0.04